Time;durP1;ratioP1;P1;durP2;ratioP2;P2;SDS_P1;SDS_P2;PMS_P1;PMS_P2;Temp;Humidity;BMP_temperature;BMP_pressure;BME280_temperature;BME280_humidity;BME280_pressure;Samples;Min_cycle;Max_cycle;Signal;HPM_P1;HPM_P2
2024/01/04 00:02:20;;;;;;;7.93;1.67;;;9.00;99.90;;;;;;5032284;28;20076;-63
2024/01/04 00:04:47;;;;;;;6.80;1.73;;;9.10;99.90;;;;;;5033112;28;20056;-63
2024/01/04 00:07:14;;;;;;;7.57;1.75;;;9.10;99.90;;;;;;5031383;28;20045;-64
2024/01/04 00:09:40;;;;;;;9.77;1.98;;;9.10;99.90;;;;;;5032907;28;20501;-63
2024/01/04 00:12:09;;;;;;;10.10;1.77;;;9.10;99.90;;;;;;5032828;28;20080;-63
2024/01/04 00:14:36;;;;;;;6.38;1.70;;;9.10;99.90;;;;;;5015180;28;20437;-63
2024/01/04 00:17:03;;;;;;;8.18;1.60;;;9.10;99.90;;;;;;5032539;28;20108;-63
2024/01/04 00:19:30;;;;;;;9.25;2.20;;;9.10;99.90;;;;;;5033261;28;20083;-63
2024/01/04 00:21:57;;;;;;;10.88;1.70;;;9.10;99.90;;;;;;5032533;28;20458;-63
2024/01/04 00:24:23;;;;;;;6.72;1.40;;;9.10;99.90;;;;;;5032293;28;20045;-63
2024/01/04 00:26:50;;;;;;;9.48;1.90;;;9.10;99.90;;;;;;5031335;28;20041;-63
2024/01/04 00:29:17;;;;;;;6.80;1.40;;;9.10;99.90;;;;;;5031092;28;20432;-63
2024/01/04 00:31:44;;;;;;;9.52;1.60;;;9.10;99.90;;;;;;5032884;28;20367;-63
2024/01/04 00:34:11;;;;;;;6.10;1.40;;;9.00;99.90;;;;;;5031136;28;20045;-63
2024/01/04 00:36:38;;;;;;;8.05;1.65;;;9.10;99.90;;;;;;5032424;28;20064;-63
2024/01/04 00:39:06;;;;;;;6.32;1.30;;;9.00;99.90;;;;;;5030702;28;20095;-63
2024/01/04 00:41:33;;;;;;;9.57;1.40;;;9.00;99.90;;;;;;5032324;28;20513;-64
2024/01/04 00:44:00;;;;;;;6.53;1.52;;;9.00;99.90;;;;;;5030801;28;20044;-63
2024/01/04 00:46:27;;;;;;;4.93;1.35;;;9.00;99.90;;;;;;5032076;28;20045;-63
2024/01/04 00:48:54;;;;;;;6.35;1.20;;;9.00;99.90;;;;;;5032663;28;20478;-63
2024/01/04 00:51:21;;;;;;;6.80;1.42;;;9.00;99.90;;;;;;5032313;28;20051;-63
2024/01/04 00:53:48;;;;;;;5.40;1.20;;;9.00;99.90;;;;;;5032523;28;20041;-63
2024/01/04 00:56:15;;;;;;;9.73;1.70;;;9.00;99.90;;;;;;5031118;28;20044;-64
2024/01/04 00:58:41;;;;;;;5.43;1.02;;;9.00;99.90;;;;;;5031067;28;20387;-64
2024/01/04 01:01:08;;;;;;;8.90;1.33;;;9.00;99.90;;;;;;5032560;28;20443;-64
2024/01/04 01:03:35;;;;;;;7.40;1.45;;;9.00;99.90;;;;;;5030563;28;20052;-64
2024/01/04 01:06:02;;;;;;;6.20;1.15;;;9.00;99.90;;;;;;5030622;28;20550;-64
2024/01/04 01:08:29;;;;;;;4.28;1.20;;;9.00;99.90;;;;;;5032309;28;20470;-64
2024/01/04 01:10:56;;;;;;;5.00;1.30;;;8.90;99.90;;;;;;5036320;28;20048;-64
2024/01/04 01:13:23;;;;;;;4.22;1.00;;;8.90;99.90;;;;;;5035190;28;20056;-64
2024/01/04 01:15:50;;;;;;;5.00;1.05;;;8.80;99.90;;;;;;5035617;28;20038;-64
2024/01/04 01:18:17;;;;;;;8.50;1.45;;;8.80;99.90;;;;;;5035016;28;20463;-63
2024/01/04 01:20:44;;;;;;;5.78;1.23;;;8.70;99.90;;;;;;5018625;28;20044;-63
2024/01/04 01:23:12;;;;;;;6.10;1.15;;;8.70;99.90;;;;;;5036161;28;20061;-63
2024/01/04 01:25:38;;;;;;;8.25;1.20;;;8.60;99.90;;;;;;5018310;28;20037;-64
2024/01/04 01:28:05;;;;;;;5.68;1.20;;;8.60;99.90;;;;;;5033958;28;20486;-63
2024/01/04 01:30:32;;;;;;;4.90;1.30;;;8.60;99.90;;;;;;5034118;28;20498;-63
2024/01/04 01:32:59;;;;;;;6.15;1.00;;;8.60;99.90;;;;;;5035268;28;20041;-64
2024/01/04 01:35:26;;;;;;;5.50;1.30;;;8.60;99.90;;;;;;5034083;28;20124;-64
2024/01/04 01:37:53;;;;;;;6.43;1.08;;;8.60;99.90;;;;;;5034557;28;20061;-63
2024/01/04 01:40:20;;;;;;;4.65;1.00;;;8.60;99.90;;;;;;5035727;28;20479;-64
2024/01/04 01:42:47;;;;;;;3.70;0.82;;;8.60;99.90;;;;;;5034554;28;20125;-64
2024/01/04 01:45:13;;;;;;;5.88;1.10;;;8.70;99.90;;;;;;5017878;28;20049;-63
2024/01/04 01:47:40;;;;;;;4.28;1.00;;;8.70;99.90;;;;;;5018145;28;20045;-63
2024/01/04 01:50:07;;;;;;;5.25;1.05;;;8.70;99.90;;;;;;5035554;28;20050;-64
2024/01/04 01:52:34;;;;;;;3.67;1.05;;;8.80;99.90;;;;;;5035617;28;20041;-63
2024/01/04 01:55:01;;;;;;;3.63;0.98;;;8.80;99.90;;;;;;5034917;28;20502;-63
2024/01/04 01:57:31;;;;;;;4.03;1.20;;;8.80;99.90;;;;;;5035167;28;20045;-64
2024/01/04 01:59:57;;;;;;;5.63;1.00;;;8.80;99.90;;;;;;5033524;28;20045;-64
2024/01/04 02:02:24;;;;;;;4.18;1.10;;;8.80;99.90;;;;;;5033683;28;20469;-68
2024/01/04 02:04:51;;;;;;;4.65;1.15;;;8.80;99.90;;;;;;5034891;28;20485;-68
2024/01/04 02:07:18;;;;;;;9.23;1.60;;;8.80;99.90;;;;;;5033587;28;20502;-68
2024/01/04 02:09:45;;;;;;;4.95;1.27;;;8.80;99.90;;;;;;5035154;28;20057;-68
2024/01/04 02:12:13;;;;;;;5.00;1.05;;;8.80;99.90;;;;;;5035541;28;20491;-69
2024/01/04 02:14:40;;;;;;;5.10;0.95;;;8.80;99.90;;;;;;5033739;28;20037;-68
2024/01/04 02:17:07;;;;;;;5.38;1.23;;;8.80;99.90;;;;;;5034518;28;20041;-69
2024/01/04 02:19:34;;;;;;;4.70;1.02;;;8.80;99.90;;;;;;5033387;28;20438;-68
2024/01/04 02:22:02;;;;;;;3.53;1.10;;;8.80;99.90;;;;;;5032766;28;20041;-68
2024/01/04 02:24:29;;;;;;;5.63;1.10;;;8.80;99.90;;;;;;5033830;28;20034;-68
2024/01/04 02:26:56;;;;;;;6.03;1.73;;;8.80;99.90;;;;;;5017120;28;20117;-68
2024/01/04 02:29:22;;;;;;;7.00;1.10;;;8.80;99.90;;;;;;5034861;28;20099;-68
2024/01/04 02:31:49;;;;;;;4.47;1.02;;;8.90;99.90;;;;;;5034758;28;20045;-68
2024/01/04 02:34:16;;;;;;;6.40;1.23;;;8.80;99.90;;;;;;5035124;28;20045;-68
2024/01/04 02:36:43;;;;;;;3.45;0.82;;;8.90;99.90;;;;;;5035098;28;20033;-69
2024/01/04 02:39:11;;;;;;;7.72;1.83;;;8.90;99.90;;;;;;5034983;28;20041;-68
2024/01/04 02:41:38;;;;;;;4.60;1.00;;;8.80;99.90;;;;;;5034804;28;20387;-68
2024/01/04 02:44:05;;;;;;;3.95;1.10;;;8.80;99.90;;;;;;5033223;28;20051;-68
2024/01/04 02:46:31;;;;;;;6.80;1.10;;;8.80;99.90;;;;;;5034357;28;20052;-68
2024/01/04 02:48:58;;;;;;;3.13;0.82;;;8.80;99.90;;;;;;5034998;28;20479;-68
2024/01/04 02:51:25;;;;;;;5.00;1.00;;;8.80;99.90;;;;;;5035003;28;20048;-69
2024/01/04 02:53:52;;;;;;;4.60;1.00;;;8.80;99.90;;;;;;5033229;28;20471;-68
2024/01/04 02:56:19;;;;;;;6.30;1.40;;;8.80;99.90;;;;;;5035006;28;20065;-68
2024/01/04 02:58:46;;;;;;;4.78;0.95;;;8.80;99.90;;;;;;5034851;28;20446;-69
2024/01/04 03:01:12;;;;;;;6.43;1.23;;;8.80;99.90;;;;;;5034720;28;20107;-68
2024/01/04 03:03:39;;;;;;;7.35;1.40;;;8.80;99.90;;;;;;5033181;28;20545;-68
2024/01/04 03:06:06;;;;;;;7.22;1.45;;;8.80;99.90;;;;;;5035026;28;20041;-68
2024/01/04 03:08:33;;;;;;;4.97;1.13;;;8.80;99.90;;;;;;5034273;28;20045;-68
2024/01/04 03:11:00;;;;;;;5.47;1.63;;;8.80;99.90;;;;;;5034769;28;20073;-68
2024/01/04 03:13:26;;;;;;;5.43;1.40;;;8.80;99.90;;;;;;5034256;28;20089;-68
2024/01/04 03:15:53;;;;;;;4.82;1.20;;;8.80;99.90;;;;;;5034367;28;20376;-67
2024/01/04 03:18:20;;;;;;;5.22;1.30;;;8.80;99.90;;;;;;5034459;28;20041;-67
2024/01/04 03:20:47;;;;;;;8.18;1.35;;;8.80;99.90;;;;;;5034462;28;20069;-68
2024/01/04 03:23:14;;;;;;;8.02;1.65;;;8.80;99.90;;;;;;5034530;28;20034;-68
2024/01/04 03:25:41;;;;;;;7.90;1.20;;;8.80;99.90;;;;;;5034325;28;20494;-68
2024/01/04 03:28:08;;;;;;;4.72;1.00;;;8.80;99.90;;;;;;5032742;28;20391;-68
2024/01/04 03:30:35;;;;;;;7.35;1.45;;;8.80;99.90;;;;;;5034249;28;20597;-68
2024/01/04 03:33:02;;;;;;;7.82;1.42;;;8.80;99.90;;;;;;5031488;28;20402;-68
2024/01/04 03:35:29;;;;;;;7.38;1.42;;;8.80;99.90;;;;;;5032433;28;20041;-68
2024/01/04 03:37:56;;;;;;;9.43;1.60;;;8.80;99.90;;;;;;5033746;28;20041;-68
2024/01/04 03:40:22;;;;;;;9.77;1.88;;;8.80;99.90;;;;;;5032699;28;20430;-68
2024/01/04 03:42:49;;;;;;;7.75;1.10;;;8.80;99.90;;;;;;5034056;28;20052;-68
2024/01/04 03:45:16;;;;;;;8.57;1.50;;;8.80;99.90;;;;;;5033996;28;20418;-68
2024/01/04 03:47:43;;;;;;;6.57;1.60;;;8.80;99.90;;;;;;5033947;28;20048;-68
2024/01/04 03:50:10;;;;;;;10.05;1.58;;;8.70;99.90;;;;;;5033607;28;20090;-68
2024/01/04 03:52:37;;;;;;;7.07;1.60;;;8.70;99.90;;;;;;5034031;28;20076;-68
2024/01/04 03:55:03;;;;;;;7.65;1.38;;;8.70;99.90;;;;;;5033648;28;20133;-68
2024/01/04 03:57:30;;;;;;;10.02;1.63;;;8.70;99.90;;;;;;5033543;28;20080;-68
2024/01/04 03:59:57;;;;;;;8.68;1.67;;;8.60;99.90;;;;;;5033437;28;20048;-68
2024/01/04 04:02:24;;;;;;;8.05;1.73;;;8.60;99.90;;;;;;5033464;28;20037;-63
2024/01/04 04:04:50;;;;;;;8.13;2.17;;;8.50;99.90;;;;;;5033391;28;20095;-64
2024/01/04 04:07:17;;;;;;;9.57;1.77;;;8.50;99.90;;;;;;5033829;28;20055;-63
2024/01/04 04:09:44;;;;;;;8.80;1.52;;;8.50;99.90;;;;;;5032214;28;20041;-63
2024/01/04 04:12:11;;;;;;;10.63;2.20;;;8.40;99.90;;;;;;5032220;28;20543;-63
2024/01/04 04:14:38;;;;;;;9.73;1.70;;;8.40;99.90;;;;;;5032055;28;20049;-64
2024/01/04 04:17:05;;;;;;;13.77;2.55;;;8.30;99.90;;;;;;5031542;28;20111;-63
2024/01/04 04:19:32;;;;;;;7.15;1.48;;;8.20;99.90;;;;;;5033087;28;20033;-63
2024/01/04 04:21:59;;;;;;;7.65;1.83;;;8.20;99.90;;;;;;5031962;28;20037;-63
2024/01/04 04:24:25;;;;;;;12.65;2.13;;;8.10;99.90;;;;;;5033216;28;20049;-63
2024/01/04 04:26:52;;;;;;;11.13;2.00;;;8.00;99.90;;;;;;5032996;28;20431;-63
2024/01/04 04:29:19;;;;;;;14.43;2.15;;;8.00;99.90;;;;;;5033063;28;20080;-63
2024/01/04 04:31:46;;;;;;;9.38;2.17;;;7.90;99.90;;;;;;5033241;28;20053;-63
2024/01/04 04:34:12;;;;;;;17.85;2.63;;;7.90;99.90;;;;;;5031805;28;20068;-70
2024/01/04 04:36:40;;;;;;;12.32;2.03;;;7.80;99.90;;;;;;5031565;28;20038;-70
2024/01/04 04:39:08;;;;;;;10.50;1.73;;;7.80;99.90;;;;;;5032894;28;20037;-70
2024/01/04 04:41:36;;;;;;;15.00;2.80;;;7.80;99.90;;;;;;5033398;28;20072;-70
2024/01/04 04:44:02;;;;;;;13.63;2.00;;;7.80;99.90;;;;;;5032455;28;20057;-69
2024/01/04 04:46:29;;;;;;;13.48;2.42;;;7.70;99.90;;;;;;5037457;28;20045;-70
2024/01/04 04:48:57;;;;;;;15.60;2.25;;;7.70;99.90;;;;;;5037446;28;20049;-70
2024/01/04 04:51:27;;;;;;;8.18;1.83;;;7.70;99.90;;;;;;5037146;28;20053;-70
2024/01/04 04:53:54;;;;;;;11.05;2.97;;;7.70;99.90;;;;;;5036837;28;20037;-70
2024/01/04 04:56:21;;;;;;;13.85;2.67;;;7.70;99.90;;;;;;5036709;28;20052;-69
2024/01/04 04:58:47;;;;;;;15.00;2.55;;;7.60;99.90;;;;;;5037265;28;20437;-69
2024/01/04 05:01:14;;;;;;;8.70;2.03;;;7.60;99.90;;;;;;5035931;28;20042;-69
2024/01/04 05:03:41;;;;;;;16.88;2.70;;;7.60;99.90;;;;;;5035189;28;20144;-69
2024/01/04 05:06:08;;;;;;;16.33;2.92;;;7.60;99.90;;;;;;5036944;28;20096;-69
2024/01/04 05:08:35;;;;;;;10.88;2.28;;;7.60;99.90;;;;;;5035428;28;20144;-70
2024/01/04 05:11:02;;;;;;;15.38;2.05;;;7.50;99.90;;;;;;5036882;28;20107;-69
2024/01/04 05:13:29;;;;;;;20.88;2.97;;;7.50;99.90;;;;;;5036913;28;20520;-61
2024/01/04 05:15:55;;;;;;;15.38;2.53;;;7.50;99.90;;;;;;5036934;28;20060;-61
2024/01/04 05:18:22;;;;;;;15.35;2.47;;;7.50;99.90;;;;;;5036739;28;20482;-61
2024/01/04 05:20:49;;;;;;;17.02;3.13;;;7.40;99.90;;;;;;5036689;28;20467;-70
2024/01/04 05:23:17;;;;;;;13.93;2.22;;;7.40;99.90;;;;;;5018455;28;20084;-69
2024/01/04 05:25:44;;;;;;;12.55;2.30;;;7.40;99.90;;;;;;5036716;28;20041;-70
2024/01/04 05:28:11;;;;;;;18.75;2.83;;;7.40;99.90;;;;;;5035457;28;20068;-70
2024/01/04 05:30:38;;;;;;;13.50;2.40;;;7.40;99.90;;;;;;5035415;28;20049;-70
2024/01/04 05:33:05;;;;;;;16.63;2.40;;;7.40;99.90;;;;;;5036532;28;20367;-70
2024/01/04 05:35:32;;;;;;;15.35;3.10;;;7.30;99.90;;;;;;5036316;28;20396;-70
2024/01/04 05:37:58;;;;;;;15.15;2.40;;;7.30;99.90;;;;;;5036308;28;20044;-61
2024/01/04 05:40:25;;;;;;;13.27;2.63;;;7.30;99.90;;;;;;5036248;28;20041;-61
2024/01/04 05:42:55;;;;;;;16.70;3.00;;;7.30;99.90;;;;;;5034532;28;20050;-61
2024/01/04 05:45:22;;;;;;;14.30;3.35;;;7.20;99.90;;;;;;5036069;28;20037;-60
2024/01/04 05:47:49;;;;;;;14.07;2.38;;;7.20;99.90;;;;;;5035891;28;20496;-60
2024/01/04 05:50:16;;;;;;;21.13;3.28;;;7.20;99.90;;;;;;5035989;28;20037;-61
2024/01/04 05:52:43;;;;;;;14.18;2.60;;;7.20;99.90;;;;;;5035887;28;20076;-62
2024/01/04 05:55:10;;;;;;;16.40;3.30;;;7.20;99.90;;;;;;5035007;28;20479;-60
2024/01/04 05:57:36;;;;;;;22.90;3.38;;;7.10;99.90;;;;;;5035130;28;20132;-61
2024/01/04 06:00:04;;;;;;;19.13;2.78;;;7.10;99.90;;;;;;5034266;28;20054;-61
2024/01/04 06:02:31;;;;;;;18.83;2.88;;;7.10;99.90;;;;;;5035815;28;20044;-63
2024/01/04 06:04:58;;;;;;;15.88;2.67;;;7.10;99.90;;;;;;5035645;28;20474;-63
2024/01/04 06:07:25;;;;;;;14.35;2.67;;;7.10;99.90;;;;;;5035469;28;20041;-63
2024/01/04 06:09:55;;;;;;;14.93;2.50;;;7.10;99.90;;;;;;5035839;28;20049;-64
2024/01/04 06:12:22;;;;;;;19.05;3.15;;;7.00;99.90;;;;;;5035469;28;20056;-64
2024/01/04 06:14:49;;;;;;;20.55;3.10;;;7.00;99.90;;;;;;5035329;28;20037;-64
2024/01/04 06:17:16;;;;;;;15.57;3.55;;;7.00;99.90;;;;;;5034864;28;20077;-64
2024/01/04 06:19:44;;;;;;;17.48;3.08;;;7.00;99.90;;;;;;5035341;28;20046;-64
2024/01/04 06:22:11;;;;;;;15.45;2.90;;;6.90;99.90;;;;;;5035236;28;20047;-63
2024/01/04 06:24:38;;;;;;;18.73;2.80;;;6.90;99.90;;;;;;5017427;28;20037;-63
2024/01/04 06:27:05;;;;;;;17.70;2.63;;;6.90;99.90;;;;;;5033729;28;20053;-62
2024/01/04 06:29:32;;;;;;;19.30;2.80;;;6.90;99.90;;;;;;5034949;28;20095;-62
2024/01/04 06:31:59;;;;;;;15.95;3.40;;;6.80;99.90;;;;;;5035325;28;20052;-62
2024/01/04 06:34:25;;;;;;;14.38;3.33;;;6.80;99.90;;;;;;5033439;28;20506;-62
2024/01/04 06:36:52;;;;;;;18.42;3.05;;;6.70;99.90;;;;;;5035340;28;20090;-63
2024/01/04 06:39:19;;;;;;;17.48;2.88;;;6.70;99.90;;;;;;5034827;28;20042;-62
2024/01/04 06:41:46;;;;;;;13.27;2.38;;;6.70;99.90;;;;;;5034600;28;20041;-62
2024/01/04 06:44:13;;;;;;;13.95;3.13;;;6.70;99.90;;;;;;5034759;28;20080;-62
2024/01/04 06:46:40;;;;;;;16.33;2.83;;;6.60;99.90;;;;;;5034899;28;20041;-62
2024/01/04 06:49:07;;;;;;;15.18;2.45;;;6.60;99.90;;;;;;5035331;28;20049;-62
2024/01/04 06:51:34;;;;;;;20.83;2.90;;;6.60;99.90;;;;;;5033922;28;20398;-62
2024/01/04 06:54:00;;;;;;;23.30;3.53;;;6.60;99.90;;;;;;5033754;28;20405;-62
2024/01/04 06:56:27;;;;;;;13.93;2.25;;;6.60;99.90;;;;;;5034811;28;20052;-61
2024/01/04 06:58:54;;;;;;;13.48;2.67;;;6.50;99.90;;;;;;5034521;28;20041;-61
2024/01/04 07:01:21;;;;;;;16.88;2.22;;;6.60;99.90;;;;;;5035107;28;20419;-64
2024/01/04 07:03:48;;;;;;;17.08;2.95;;;6.50;99.90;;;;;;5034657;28;20156;-62
2024/01/04 07:06:15;;;;;;;15.00;2.08;;;6.50;99.90;;;;;;5034159;28;20088;-62
2024/01/04 07:08:41;;;;;;;18.75;2.63;;;6.50;99.90;;;;;;5034002;28;20041;-62
2024/01/04 07:11:08;;;;;;;13.27;2.58;;;6.40;99.90;;;;;;5034218;28;20034;-71
2024/01/04 07:13:35;;;;;;;20.42;3.28;;;6.40;99.90;;;;;;5034088;28;20042;-69
2024/01/04 07:16:02;;;;;;;13.30;2.80;;;6.40;99.90;;;;;;5034206;28;20061;-69
2024/01/04 07:18:29;;;;;;;12.65;2.92;;;6.40;99.90;;;;;;5033285;28;20049;-69
2024/01/04 07:20:55;;;;;;;17.98;2.95;;;6.40;99.90;;;;;;5034324;28;20426;-69
2024/01/04 07:23:22;;;;;;;19.40;2.75;;;6.40;99.90;;;;;;5033303;28;20041;-67
2024/01/04 07:25:50;;;;;;;14.40;2.35;;;6.30;99.90;;;;;;5032823;28;20037;-68
2024/01/04 07:28:17;;;;;;;17.27;2.65;;;6.30;99.90;;;;;;5032629;28;20037;-67
2024/01/04 07:30:44;;;;;;;11.90;2.22;;;6.30;99.90;;;;;;5034496;28;20045;-67
2024/01/04 07:33:11;;;;;;;15.35;3.25;;;6.30;99.90;;;;;;5034097;28;20045;-67
2024/01/04 07:35:38;;;;;;;16.33;2.35;;;6.30;99.90;;;;;;5034012;28;20049;-69
2024/01/04 07:38:05;;;;;;;15.57;2.40;;;6.30;99.90;;;;;;5032240;28;20037;-69
2024/01/04 07:40:34;;;;;;;16.98;2.63;;;6.20;99.90;;;;;;5034098;28;20044;-69
2024/01/04 07:43:01;;;;;;;17.33;2.72;;;6.20;99.90;;;;;;5033364;28;20041;-69
2024/01/04 07:45:28;;;;;;;14.38;2.35;;;6.20;99.90;;;;;;5033504;28;20397;-63
2024/01/04 07:47:55;;;;;;;17.30;2.40;;;6.20;99.90;;;;;;5034075;28;20060;-64
2024/01/04 07:50:23;;;;;;;15.10;2.70;;;6.20;99.90;;;;;;5033968;28;20045;-64
2024/01/04 07:52:49;;;;;;;13.95;2.50;;;6.10;99.90;;;;;;5033687;28;20041;-63
2024/01/04 07:55:19;;;;;;;19.25;2.55;;;6.10;99.90;;;;;;5033903;28;20038;-64
2024/01/04 07:57:46;;;;;;;13.07;2.88;;;6.10;99.90;;;;;;5033875;28;20034;-62
2024/01/04 08:00:13;;;;;;;21.08;2.97;;;6.10;99.90;;;;;;5032177;28;20132;-62
2024/01/04 08:02:40;;;;;;;15.18;2.72;;;6.10;99.90;;;;;;5032543;28;20074;-62
2024/01/04 08:05:07;;;;;;;18.10;2.92;;;6.10;99.90;;;;;;5033444;28;20041;-62
2024/01/04 08:07:34;;;;;;;18.05;2.65;;;6.10;99.90;;;;;;5033570;28;20049;-62
2024/01/04 08:10:01;;;;;;;12.98;2.42;;;6.00;99.90;;;;;;5031986;28;20041;-61
2024/01/04 08:12:28;;;;;;;14.63;2.60;;;6.10;99.90;;;;;;5032949;28;20041;-60
2024/01/04 08:14:55;;;;;;;12.48;2.00;;;6.00;99.90;;;;;;5032174;28;20052;-62
2024/01/04 08:17:22;;;;;;;20.08;2.60;;;6.00;99.90;;;;;;5033060;28;20144;-61
2024/01/04 08:19:49;;;;;;;16.70;2.95;;;6.00;99.90;;;;;;5032759;28;20041;-61
2024/01/04 08:22:16;;;;;;;17.42;2.72;;;6.00;99.90;;;;;;5033055;28;20478;-61
2024/01/04 08:24:43;;;;;;;13.88;2.55;;;6.00;99.90;;;;;;5032901;28;20060;-61
2024/01/04 08:27:10;;;;;;;19.40;2.42;;;6.00;99.90;;;;;;5032223;28;20574;-61
2024/01/04 08:29:36;;;;;;;16.45;2.70;;;6.10;99.90;;;;;;5033165;28;20120;-61
2024/01/04 08:32:03;;;;;;;17.02;3.35;;;6.10;99.90;;;;;;5033173;28;20057;-61
2024/01/04 08:34:30;;;;;;;13.60;2.80;;;6.10;99.90;;;;;;5032991;28;20037;-61
2024/01/04 08:36:57;;;;;;;17.85;2.90;;;6.10;99.90;;;;;;5032725;28;20115;-68
2024/01/04 08:39:24;;;;;;;12.43;2.42;;;6.10;99.90;;;;;;5033279;28;20033;-68
2024/01/04 08:41:51;;;;;;;15.55;2.95;;;6.10;99.90;;;;;;5031902;28;20107;-68
2024/01/04 08:44:18;;;;;;;17.90;3.25;;;6.10;99.90;;;;;;5033543;28;20038;-70
2024/01/04 08:46:44;;;;;;;12.57;2.90;;;6.20;99.90;;;;;;5031711;28;20037;-70
2024/01/04 08:49:12;;;;;;;15.10;2.55;;;6.20;99.90;;;;;;5031625;28;20496;-70
2024/01/04 08:51:39;;;;;;;16.40;3.05;;;6.20;99.90;;;;;;5032697;28;20435;-70
2024/01/04 08:54:06;;;;;;;14.35;2.28;;;6.20;99.90;;;;;;5032759;28;20417;-68
2024/01/04 08:56:33;;;;;;;13.73;2.30;;;6.30;99.90;;;;;;5031285;28;20045;-68
2024/01/04 08:59:02;;;;;;;14.23;2.17;;;6.30;99.90;;;;;;5033026;28;20042;-68
2024/01/04 09:01:29;;;;;;;13.90;2.53;;;6.30;99.90;;;;;;5032922;28;20084;-69
2024/01/04 09:03:57;;;;;;;12.10;2.47;;;6.40;99.90;;;;;;5036273;28;20099;-69
2024/01/04 09:06:24;;;;;;;19.60;3.42;;;6.40;99.90;;;;;;5031299;28;20045;-69
2024/01/04 09:08:51;;;;;;;14.52;3.08;;;6.40;99.90;;;;;;5032609;28;20044;-61
2024/01/04 09:11:17;;;;;;;16.55;2.33;;;6.40;99.90;;;;;;5033013;28;20112;-62
2024/01/04 09:13:45;;;;;;;9.88;2.47;;;6.50;99.90;;;;;;5032946;28;20060;-62
2024/01/04 09:16:12;;;;;;;18.20;4.00;;;6.50;99.90;;;;;;5032479;28;20065;-62
2024/01/04 09:18:39;;;;;;;12.88;2.40;;;6.60;99.90;;;;;;5032848;28;20059;-62
2024/01/04 09:21:06;;;;;;;17.42;2.90;;;6.60;99.90;;;;;;5032737;28;20072;-62
2024/01/04 09:23:33;;;;;;;18.80;3.25;;;6.60;99.90;;;;;;5031313;28;20143;-61
2024/01/04 09:25:59;;;;;;;15.80;2.55;;;6.60;99.90;;;;;;5014876;28;20045;-62
2024/01/04 09:28:27;;;;;;;15.45;2.40;;;6.60;99.90;;;;;;5032432;28;20041;-62
2024/01/04 09:30:53;;;;;;;15.50;2.22;;;6.70;99.90;;;;;;5034758;28;20100;-62
2024/01/04 09:33:23;;;;;;;13.02;2.58;;;6.70;99.90;;;;;;5018531;28;20041;-62
2024/01/04 09:35:51;;;;;;;19.50;3.70;;;6.70;99.90;;;;;;5036164;28;20072;-62
2024/01/04 09:38:19;;;;;;;16.38;3.20;;;6.70;99.90;;;;;;5036365;28;20201;-64
2024/01/04 09:40:46;;;;;;;13.10;3.10;;;6.80;99.90;;;;;;5036389;28;20047;-64
2024/01/04 09:43:15;;;;;;;19.10;3.47;;;6.80;99.90;;;;;;5035926;28;20555;-64
2024/01/04 09:45:42;;;;;;;20.92;3.50;;;6.80;99.90;;;;;;5036272;28;20041;-64
2024/01/04 09:48:10;;;;;;;12.48;2.63;;;6.80;99.90;;;;;;5035851;28;20042;-63
2024/01/04 09:50:53;;;;;;;16.20;3.42;;;6.90;99.90;;;;;;5036313;28;20069;-63
2024/01/04 09:53:21;;;;;;;19.50;2.83;;;6.90;99.90;;;;;;5035006;28;20038;-64
2024/01/04 09:55:48;;;;;;;15.18;3.00;;;7.00;99.90;;;;;;5034576;28;20136;-64
2024/01/04 09:58:15;;;;;;;15.02;2.88;;;7.00;99.90;;;;;;5034524;28;20472;-63
2024/01/04 10:00:42;;;;;;;16.63;3.08;;;7.00;99.90;;;;;;5035440;28;20038;-64
2024/01/04 10:03:12;;;;;;;19.48;3.35;;;7.10;99.90;;;;;;5035687;28;20037;-64
2024/01/04 10:05:39;;;;;;;14.40;2.90;;;7.10;99.90;;;;;;5036071;28;20052;-64
2024/01/04 10:08:06;;;;;;;16.75;3.17;;;7.10;99.90;;;;;;5034571;28;20128;-62
2024/01/04 10:10:33;;;;;;;19.10;3.20;;;7.10;99.90;;;;;;5034433;28;20143;-61
2024/01/04 10:13:00;;;;;;;15.30;2.65;;;7.20;99.90;;;;;;5035761;28;20390;-61
2024/01/04 10:15:26;;;;;;;14.35;2.38;;;7.20;99.90;;;;;;5035388;28;20053;-62
2024/01/04 10:17:54;;;;;;;16.67;2.33;;;7.20;99.90;;;;;;5034245;28;20042;-62
2024/01/04 10:20:21;;;;;;;13.65;2.95;;;7.20;99.90;;;;;;5034026;28;20037;-62
2024/01/04 10:22:49;;;;;;;15.13;2.45;;;7.20;99.90;;;;;;5034415;28;20096;-68
2024/01/04 10:25:18;;;;;;;16.27;2.60;;;7.30;99.90;;;;;;5033984;28;20073;-68
2024/01/04 10:27:45;;;;;;;17.33;2.78;;;7.30;99.90;;;;;;5035003;28;20041;-70
2024/01/04 10:30:12;;;;;;;16.73;2.92;;;7.40;99.90;;;;;;5035460;28;20037;-70
2024/01/04 10:32:39;;;;;;;18.98;3.05;;;7.40;99.90;;;;;;5033950;28;20072;-70
2024/01/04 10:35:06;;;;;;;25.50;3.17;;;7.50;99.90;;;;;;5034864;28;20053;-64
2024/01/04 10:37:33;;;;;;;12.70;3.03;;;7.50;99.90;;;;;;5034899;28;20041;-64
2024/01/04 10:40:03;;;;;;;15.32;2.78;;;7.60;99.90;;;;;;5034086;28;20120;-70
2024/01/04 10:42:30;;;;;;;16.83;2.97;;;7.70;99.90;;;;;;5033297;28;20044;-70
2024/01/04 10:44:58;;;;;;;15.13;3.08;;;7.70;99.90;;;;;;5035082;28;20038;-70
2024/01/04 10:47:25;;;;;;;14.70;3.05;;;7.80;99.90;;;;;;5035264;28;20470;-70
2024/01/04 10:49:52;;;;;;;14.95;2.80;;;7.80;99.90;;;;;;5033518;28;20064;-71
2024/01/04 10:52:22;;;;;;;15.93;2.97;;;7.90;99.90;;;;;;5034555;28;20037;-70
2024/01/04 10:54:52;;;;;;;17.80;4.20;;;7.90;99.90;;;;;;5034940;28;20042;-70
2024/01/04 10:57:18;;;;;;;17.20;3.58;;;7.90;99.90;;;;;;5033446;28;20057;-70
2024/01/04 10:59:45;;;;;;;14.85;2.95;;;8.00;99.90;;;;;;5034615;28;20426;-70
2024/01/04 11:02:15;;;;;;;14.68;3.75;;;8.00;99.90;;;;;;5033783;28;20052;-70
2024/01/04 11:04:42;;;;;;;17.50;3.25;;;8.00;99.90;;;;;;5034352;28;20451;-70
2024/01/04 11:07:09;;;;;;;12.65;3.08;;;8.00;99.90;;;;;;5034626;28;20048;-70
2024/01/04 11:09:36;;;;;;;15.85;2.88;;;8.00;99.90;;;;;;5034639;28;20045;-70
2024/01/04 11:12:03;;;;;;;16.38;3.03;;;8.00;99.90;;;;;;5033563;28;20045;-70
2024/01/04 11:14:30;;;;;;;16.30;3.20;;;8.10;99.90;;;;;;5034748;28;20038;-70
2024/01/04 11:16:57;;;;;;;15.40;2.80;;;8.10;99.90;;;;;;5033917;28;20072;-70
2024/01/04 11:19:24;;;;;;;14.18;3.15;;;8.10;99.90;;;;;;5016365;28;20544;-63
2024/01/04 11:21:51;;;;;;;17.15;3.00;;;8.10;99.90;;;;;;5034237;28;20107;-62
2024/01/04 11:24:18;;;;;;;16.77;4.25;;;8.10;99.90;;;;;;5034368;28;20045;-63
2024/01/04 11:26:45;;;;;;;16.25;3.90;;;8.10;99.90;;;;;;5034170;28;20471;-62
2024/01/04 11:29:12;;;;;;;21.95;3.10;;;8.10;99.90;;;;;;5034001;28;20509;-63
2024/01/04 11:31:39;;;;;;;17.42;3.35;;;8.10;99.90;;;;;;5033771;28;20052;-63
2024/01/04 11:34:06;;;;;;;20.60;3.40;;;8.20;99.90;;;;;;5033697;28;20049;-62
2024/01/04 11:36:33;;;;;;;14.15;3.17;;;8.20;99.90;;;;;;5033829;28;20042;-62
2024/01/04 11:38:59;;;;;;;17.63;2.80;;;8.20;99.90;;;;;;5032720;28;20439;-62
2024/01/04 11:41:26;;;;;;;17.67;3.60;;;8.20;99.90;;;;;;5032832;28;20108;-63
2024/01/04 11:43:54;;;;;;;12.45;2.78;;;8.30;99.90;;;;;;5032616;28;20042;-63
2024/01/04 11:46:26;;;;;;;13.85;3.35;;;8.30;99.90;;;;;;5034143;28;20042;-63
2024/01/04 11:48:53;;;;;;;18.05;3.08;;;8.30;99.90;;;;;;5033860;28;20376;-63
2024/01/04 11:51:20;;;;;;;14.20;3.65;;;8.40;99.90;;;;;;5033991;28;20045;-62
2024/01/04 11:53:48;;;;;;;17.13;3.10;;;8.40;99.90;;;;;;5031537;28;20072;-62
2024/01/04 11:56:17;;;;;;;17.27;3.70;;;8.50;99.90;;;;;;5032848;28;20050;-65
2024/01/04 11:58:44;;;;;;;19.33;3.80;;;8.50;99.90;;;;;;5032199;28;20505;-63
2024/01/04 12:01:10;;;;;;;18.08;3.83;;;8.60;99.90;;;;;;5033695;28;20394;-62
2024/01/04 12:03:38;;;;;;;21.50;3.95;;;8.60;99.90;;;;;;5032152;28;20052;-62
2024/01/04 12:06:05;;;;;;;22.48;4.35;;;8.60;99.90;;;;;;5033855;28;20042;-62
2024/01/04 12:08:32;;;;;;;21.33;4.03;;;8.70;99.90;;;;;;5033130;28;20045;-62
2024/01/04 12:10:59;;;;;;;13.18;3.40;;;8.70;99.90;;;;;;5033295;28;20049;-62
2024/01/04 12:13:26;;;;;;;15.25;3.85;;;8.70;99.90;;;;;;5033144;28;20038;-64
2024/01/04 12:15:52;;;;;;;18.38;3.55;;;8.80;99.90;;;;;;5033571;28;20159;-63
2024/01/04 12:18:22;;;;;;;14.98;3.70;;;8.80;99.90;;;;;;5033617;28;20049;-62
2024/01/04 12:20:54;;;;;;;17.88;3.83;;;8.80;99.90;;;;;;5033104;28;20046;-62
2024/01/04 12:23:37;;;;;;;17.77;3.63;;;8.90;99.90;;;;;;5033323;28;20037;-62
2024/01/04 12:26:05;;;;;;;13.88;3.72;;;8.90;99.90;;;;;;5033341;28;20045;-63
2024/01/04 12:28:32;;;;;;;17.27;4.75;;;8.90;99.90;;;;;;5032961;28;20476;-62
2024/01/04 12:30:59;;;;;;;16.40;4.80;;;8.90;99.90;;;;;;5032803;28;20045;-63
2024/01/04 12:33:26;;;;;;;20.38;4.72;;;8.90;99.90;;;;;;5031510;28;20057;-63
2024/01/04 12:35:53;;;;;;;16.17;4.13;;;8.90;99.90;;;;;;5033075;28;20046;-63
2024/01/04 12:38:20;;;;;;;17.13;4.05;;;8.90;99.90;;;;;;5032707;28;20041;-62
2024/01/04 12:40:46;;;;;;;16.23;3.85;;;8.90;99.90;;;;;;5033326;28;20049;-63
2024/01/04 12:43:13;;;;;;;18.80;4.00;;;9.00;99.90;;;;;;5033009;28;20037;-63
2024/01/04 12:45:40;;;;;;;15.52;4.28;;;9.00;99.90;;;;;;5032938;28;20099;-62
2024/01/04 12:48:07;;;;;;;14.65;4.35;;;9.00;99.90;;;;;;5033529;28;20056;-70
2024/01/04 12:50:37;;;;;;;17.45;4.45;;;9.00;99.90;;;;;;5033294;28;20065;-70